JST083 YPDN-WADD
Flight info
| Callsign | JST083 |
|---|---|
| Flight time | 2h 25m |
| Altitude | 34000 |
| Route | JULIE Q320 IDOTO M766 GABIT |
| Aircraft | A21N/M-SDE2E3FGHIRWXY/LB1 |
Departure
| Time | 2026-05-07 11:08 |
|---|---|
| Airport | Darwin International Airport / RAAF Darwin (YPDN) |
Arrival
| Time | 2026-05-07 13:33 |
|---|---|
| Airport | Denpasar I Gusti Ngurah Rai International Airport (WADD) |
| Time | Latitude | Longitude | Altitude | Speed | Heading |
|---|---|---|---|---|---|
| 2026-05-07 10:57 | -12.40828 | 130.87627 | 90 ft | 0 kts | 17° |
| 2026-05-07 11:01 | -12.40834 | 130.87625 | 90 ft | 2 kts | 17° |
| 2026-05-07 11:01 | -12.40849 | 130.87620 | 91 ft | 2 kts | 17° |
| 2026-05-07 11:01 | -12.40863 | 130.87616 | 92 ft | 2 kts | 17° |
| 2026-05-07 11:01 | -12.40877 | 130.87611 | 90 ft | 2 kts | 33° |
| 2026-05-07 11:02 | -12.40889 | 130.87602 | 90 ft | 2 kts | 47° |
| 2026-05-07 11:02 | -12.40899 | 130.87590 | 90 ft | 2 kts | 65° |
| 2026-05-07 11:02 | -12.40905 | 130.87576 | 91 ft | 2 kts | 96° |
| 2026-05-07 11:02 | -12.40904 | 130.87567 | 90 ft | 1 kts | 126° |
| 2026-05-07 11:03 | -12.40903 | 130.87566 | 91 ft | 0 kts | 126° |
| 2026-05-07 11:03 | -12.40908 | 130.87572 | 91 ft | 3 kts | 126° |
| 2026-05-07 11:04 | -12.40932 | 130.87598 | 91 ft | 7 kts | 135° |
| 2026-05-07 11:04 | -12.41000 | 130.87600 | 91 ft | 13 kts | 197° |
| 2026-05-07 11:04 | -12.41104 | 130.87565 | 91 ft | 18 kts | 198° |
| 2026-05-07 11:04 | -12.41228 | 130.87520 | 93 ft | 20 kts | 198° |
| 2026-05-07 11:05 | -12.41359 | 130.87474 | 92 ft | 18 kts | 198° |
| 2026-05-07 11:05 | -12.41473 | 130.87409 | 91 ft | 20 kts | 231° |
| 2026-05-07 11:05 | -12.41473 | 130.87267 | 94 ft | 23 kts | 288° |
| 2026-05-07 11:05 | -12.41417 | 130.87106 | 90 ft | 25 kts | 289° |
| 2026-05-07 11:06 | -12.41360 | 130.86933 | 92 ft | 26 kts | 288° |
| 2026-05-07 11:06 | -12.41299 | 130.86751 | 93 ft | 28 kts | 289° |
| 2026-05-07 11:06 | -12.41234 | 130.86563 | 94 ft | 28 kts | 294° |
| 2026-05-07 11:06 | -12.41099 | 130.86477 | 90 ft | 19 kts | 18° |
| 2026-05-07 11:07 | -12.40982 | 130.86520 | 90 ft | 18 kts | 21° |
| 2026-05-07 11:07 | -12.40963 | 130.86608 | 92 ft | 14 kts | 109° |
| 2026-05-07 11:07 | -12.41032 | 130.86814 | 91 ft | 68 kts | 109° |
| 2026-05-07 11:07 | -12.41278 | 130.87535 | 92 ft | 142 kts | 109° |
| 2026-05-07 11:08 | -12.41659 | 130.88679 | 225 ft | 187 kts | 109° |
| 2026-05-07 11:08 | -12.42071 | 130.89962 | 996 ft | 193 kts | 109° |
| 2026-05-07 11:08 | -12.42494 | 130.91300 | 1808 ft | 204 kts | 110° |
| 2026-05-07 11:08 | -12.42973 | 130.92715 | 2491 ft | 223 kts | 110° |
| 2026-05-07 11:09 | -12.43513 | 130.94281 | 3164 ft | 244 kts | 110° |
| 2026-05-07 11:09 | -12.44082 | 130.95948 | 4094 ft | 250 kts | 110° |
| 2026-05-07 11:09 | -12.44647 | 130.97617 | 5111 ft | 254 kts | 110° |
| 2026-05-07 11:09 | -12.45139 | 130.99366 | 6045 ft | 259 kts | 97° |
| 2026-05-07 11:10 | -12.44973 | 131.01222 | 6910 ft | 268 kts | 73° |
| 2026-05-07 11:10 | -12.44002 | 131.02890 | 7683 ft | 281 kts | 46° |
| 2026-05-07 11:10 | -12.42346 | 131.03977 | 8503 ft | 290 kts | 19° |
| 2026-05-07 11:10 | -12.40330 | 131.04252 | 9372 ft | 296 kts | 359° |
| 2026-05-07 11:11 | -12.38254 | 131.04206 | 10230 ft | 300 kts | 358° |
| 2026-05-07 11:11 | -12.36164 | 131.04135 | 11094 ft | 301 kts | 357° |
| 2026-05-07 11:11 | -12.34069 | 131.04066 | 11964 ft | 303 kts | 357° |
| 2026-05-07 11:11 | -12.31982 | 131.03747 | 12808 ft | 304 kts | 339° |
| 2026-05-07 11:12 | -12.30124 | 131.02743 | 13651 ft | 303 kts | 320° |
| 2026-05-07 11:12 | -12.28605 | 131.01231 | 14264 ft | 311 kts | 305° |
| 2026-05-07 11:12 | -12.27621 | 130.99188 | 14462 ft | 332 kts | 285° |
| 2026-05-07 11:12 | -12.27152 | 130.96879 | 14668 ft | 352 kts | 278° |
| 2026-05-07 11:13 | -12.26825 | 130.94371 | 15264 ft | 357 kts | 276° |
| 2026-05-07 11:13 | -12.26536 | 130.91839 | 16003 ft | 359 kts | 276° |
| 2026-05-07 11:13 | -12.26241 | 130.89290 | 16705 ft | 363 kts | 277° |
| 2026-05-07 11:13 | -12.25929 | 130.86718 | 17373 ft | 366 kts | 277° |
| 2026-05-07 11:14 | -12.25604 | 130.84125 | 18056 ft | 369 kts | 277° |
| 2026-05-07 11:14 | -12.25270 | 130.81505 | 18644 ft | 373 kts | 277° |
| 2026-05-07 11:14 | -12.24931 | 130.78856 | 19204 ft | 376 kts | 277° |
| 2026-05-07 11:14 | -12.24594 | 130.76223 | 19755 ft | 380 kts | 278° |
| 2026-05-07 11:15 | -12.24251 | 130.73536 | 20309 ft | 383 kts | 278° |
| 2026-05-07 11:15 | -12.23905 | 130.70824 | 20857 ft | 386 kts | 278° |
| 2026-05-07 11:15 | -12.23556 | 130.68089 | 21380 ft | 389 kts | 278° |
| 2026-05-07 11:15 | -12.23202 | 130.65336 | 21883 ft | 392 kts | 279° |
| 2026-05-07 11:16 | -12.22666 | 130.62594 | 22375 ft | 395 kts | 285° |
| 2026-05-07 11:16 | -12.21808 | 130.59913 | 22851 ft | 397 kts | 292° |
| 2026-05-07 11:16 | -12.20659 | 130.57335 | 23304 ft | 400 kts | 296° |
| 2026-05-07 11:16 | -12.19439 | 130.54775 | 23721 ft | 402 kts | 296° |
| 2026-05-07 11:17 | -12.18221 | 130.52191 | 24137 ft | 404 kts | 296° |
| 2026-05-07 11:17 | -12.17003 | 130.49600 | 24515 ft | 405 kts | 296° |
| 2026-05-07 11:17 | -12.15780 | 130.46998 | 24882 ft | 407 kts | 295° |
| 2026-05-07 11:17 | -12.14552 | 130.44386 | 25242 ft | 409 kts | 295° |
| 2026-05-07 11:18 | -12.13732 | 130.42645 | 25465 ft | 409 kts | 295° |
| 2026-05-07 11:18 | -12.12494 | 130.40015 | 25739 ft | 411 kts | 295° |
| 2026-05-07 11:18 | -12.10847 | 130.36518 | 26118 ft | 413 kts | 295° |
| 2026-05-07 11:18 | -12.09600 | 130.33869 | 26407 ft | 414 kts | 295° |
| 2026-05-07 11:19 | -12.08753 | 130.32071 | 26589 ft | 415 kts | 295° |
| 2026-05-07 11:19 | -12.07498 | 130.29409 | 26850 ft | 416 kts | 295° |
| 2026-05-07 11:19 | -12.06237 | 130.26733 | 27107 ft | 418 kts | 295° |
| 2026-05-07 11:19 | -12.04989 | 130.24085 | 27363 ft | 419 kts | 295° |
| 2026-05-07 11:20 | -12.03724 | 130.21402 | 27618 ft | 420 kts | 295° |
| 2026-05-07 11:20 | -12.02449 | 130.18698 | 27858 ft | 421 kts | 295° |
| 2026-05-07 11:20 | -12.01175 | 130.15999 | 28096 ft | 423 kts | 295° |
| 2026-05-07 11:20 | -11.99897 | 130.13289 | 28319 ft | 424 kts | 295° |
| 2026-05-07 11:21 | -11.98614 | 130.10571 | 28554 ft | 425 kts | 295° |
| 2026-05-07 11:21 | -11.97328 | 130.07848 | 28770 ft | 426 kts | 295° |
| 2026-05-07 11:21 | -11.96034 | 130.05108 | 28992 ft | 428 kts | 294° |
| 2026-05-07 11:21 | -11.94742 | 130.02372 | 29198 ft | 429 kts | 294° |
| 2026-05-07 11:22 | -11.93445 | 129.99629 | 29408 ft | 430 kts | 294° |
| 2026-05-07 11:22 | -11.92141 | 129.96870 | 29599 ft | 431 kts | 294° |
| 2026-05-07 11:22 | -11.90832 | 129.94101 | 29812 ft | 432 kts | 294° |
| 2026-05-07 11:22 | -11.89523 | 129.91334 | 30016 ft | 433 kts | 294° |
| 2026-05-07 11:23 | -11.88227 | 129.88595 | 30183 ft | 435 kts | 294° |
| 2026-05-07 11:23 | -11.86911 | 129.85814 | 30350 ft | 436 kts | 294° |
| 2026-05-07 11:23 | -11.85588 | 129.83020 | 30519 ft | 437 kts | 294° |
| 2026-05-07 11:23 | -11.84245 | 129.80183 | 30695 ft | 439 kts | 294° |
| 2026-05-07 11:24 | -11.82915 | 129.77376 | 30884 ft | 440 kts | 294° |
| 2026-05-07 11:24 | -11.81603 | 129.74593 | 31061 ft | 441 kts | 293° |
| 2026-05-07 11:24 | -11.80409 | 129.71710 | 31244 ft | 441 kts | 289° |
| 2026-05-07 11:24 | -11.79406 | 129.68756 | 31434 ft | 441 kts | 286° |
| 2026-05-07 11:25 | -11.78586 | 129.65729 | 31624 ft | 441 kts | 282° |
| 2026-05-07 11:25 | -11.77921 | 129.62676 | 31816 ft | 441 kts | 282° |
| 2026-05-07 11:25 | -11.77256 | 129.59615 | 32007 ft | 442 kts | 282° |
| 2026-05-07 11:25 | -11.76584 | 129.56556 | 32196 ft | 442 kts | 282° |
| 2026-05-07 11:26 | -11.75911 | 129.53497 | 32390 ft | 442 kts | 282° |
| 2026-05-07 11:26 | -11.75236 | 129.50429 | 32581 ft | 442 kts | 282° |
| 2026-05-07 11:26 | -11.74564 | 129.47367 | 32792 ft | 442 kts | 282° |
| 2026-05-07 11:26 | -11.73890 | 129.44299 | 32976 ft | 442 kts | 282° |
| 2026-05-07 11:27 | -11.73219 | 129.41240 | 33182 ft | 442 kts | 282° |
| 2026-05-07 11:27 | -11.72555 | 129.38221 | 33381 ft | 441 kts | 282° |
| 2026-05-07 11:27 | -11.71884 | 129.35166 | 33583 ft | 441 kts | 282° |
| 2026-05-07 11:27 | -11.71213 | 129.32116 | 33784 ft | 440 kts | 282° |
| 2026-05-07 11:28 | -11.70542 | 129.29067 | 33972 ft | 440 kts | 282° |
| 2026-05-07 11:28 | -11.69869 | 129.26009 | 33963 ft | 444 kts | 282° |
| 2026-05-07 11:28 | -11.68506 | 129.19821 | 33962 ft | 450 kts | 282° |
| 2026-05-07 11:29 | -11.67126 | 129.13564 | 33959 ft | 453 kts | 282° |
| 2026-05-07 11:29 | -11.65744 | 129.07308 | 33959 ft | 456 kts | 282° |
| 2026-05-07 11:30 | -11.64347 | 129.00990 | 33959 ft | 457 kts | 282° |
| 2026-05-07 11:30 | -11.62946 | 128.94655 | 33964 ft | 458 kts | 282° |
| 2026-05-07 11:31 | -11.61540 | 128.88310 | 33963 ft | 459 kts | 282° |
| 2026-05-07 11:31 | -11.60132 | 128.81963 | 33963 ft | 459 kts | 282° |
| 2026-05-07 11:32 | -11.58015 | 128.72426 | 33960 ft | 460 kts | 282° |
| 2026-05-07 11:33 | -11.56596 | 128.66049 | 33962 ft | 460 kts | 282° |
| 2026-05-07 11:33 | -11.55191 | 128.59732 | 33964 ft | 460 kts | 282° |
| 2026-05-07 11:34 | -11.53772 | 128.53366 | 33967 ft | 460 kts | 282° |
| 2026-05-07 11:34 | -11.52354 | 128.47008 | 33963 ft | 460 kts | 282° |
| 2026-05-07 11:35 | -11.50933 | 128.40648 | 33966 ft | 460 kts | 282° |
| 2026-05-07 11:35 | -11.49512 | 128.34290 | 33961 ft | 460 kts | 282° |
| 2026-05-07 11:36 | -11.48095 | 128.27958 | 33964 ft | 460 kts | 282° |
| 2026-05-07 11:36 | -11.46670 | 128.21601 | 33961 ft | 460 kts | 282° |
| 2026-05-07 11:37 | -11.45241 | 128.15230 | 33964 ft | 461 kts | 282° |
| 2026-05-07 11:37 | -11.43882 | 128.08925 | 33962 ft | 460 kts | 278° |
| 2026-05-07 11:38 | -11.43311 | 128.02437 | 33963 ft | 459 kts | 270° |
| 2026-05-07 11:38 | -11.43630 | 127.95937 | 33967 ft | 459 kts | 266° |
| 2026-05-07 11:39 | -11.44048 | 127.89448 | 33967 ft | 459 kts | 266° |
| 2026-05-07 11:39 | -11.44463 | 127.82944 | 33969 ft | 459 kts | 266° |
| 2026-05-07 11:40 | -11.44877 | 127.76493 | 33967 ft | 459 kts | 266° |
| 2026-05-07 11:40 | -11.45292 | 127.70001 | 33969 ft | 459 kts | 266° |
| 2026-05-07 11:41 | -11.45706 | 127.63514 | 33972 ft | 458 kts | 266° |
| 2026-05-07 11:41 | -11.46118 | 127.57034 | 33971 ft | 458 kts | 265° |
| 2026-05-07 11:42 | -11.46528 | 127.50548 | 33968 ft | 458 kts | 265° |
| 2026-05-07 11:42 | -11.46938 | 127.44055 | 33970 ft | 458 kts | 265° |
| 2026-05-07 11:43 | -11.47346 | 127.37569 | 33967 ft | 458 kts | 265° |
| 2026-05-07 11:43 | -11.47749 | 127.31135 | 33964 ft | 457 kts | 265° |
| 2026-05-07 11:44 | -11.48152 | 127.24671 | 33966 ft | 457 kts | 265° |
| 2026-05-07 11:44 | -11.48555 | 127.18204 | 33970 ft | 457 kts | 265° |
| 2026-05-07 11:45 | -11.48956 | 127.11734 | 33970 ft | 457 kts | 265° |
| 2026-05-07 11:45 | -11.49355 | 127.05271 | 33965 ft | 457 kts | 265° |
| 2026-05-07 11:46 | -11.49754 | 126.98803 | 33973 ft | 457 kts | 265° |
| 2026-05-07 11:46 | -11.50150 | 126.92339 | 33974 ft | 456 kts | 265° |
| 2026-05-07 11:47 | -11.50546 | 126.85874 | 33970 ft | 456 kts | 265° |
| 2026-05-07 11:47 | -11.50937 | 126.79446 | 33969 ft | 456 kts | 265° |
| 2026-05-07 11:48 | -11.51330 | 126.72981 | 33973 ft | 456 kts | 265° |
| 2026-05-07 11:48 | -11.51532 | 126.66510 | 33978 ft | 457 kts | 271° |
| 2026-05-07 11:49 | -11.50838 | 126.60056 | 33974 ft | 459 kts | 278° |
| 2026-05-07 11:49 | -11.49487 | 126.53688 | 33977 ft | 460 kts | 280° |
| 2026-05-07 11:50 | -11.48134 | 126.47309 | 33971 ft | 460 kts | 280° |
| 2026-05-07 11:50 | -11.46789 | 126.40972 | 33970 ft | 460 kts | 280° |
| 2026-05-07 11:51 | -11.45429 | 126.34585 | 33971 ft | 460 kts | 280° |
| 2026-05-07 11:51 | -11.44068 | 126.28200 | 33974 ft | 460 kts | 280° |
| 2026-05-07 11:52 | -11.42706 | 126.21821 | 33977 ft | 461 kts | 280° |
| 2026-05-07 11:52 | -11.41342 | 126.15440 | 33972 ft | 461 kts | 280° |
| 2026-05-07 11:53 | -11.39976 | 126.09056 | 33971 ft | 461 kts | 280° |
| 2026-05-07 11:53 | -11.38607 | 126.02665 | 33968 ft | 461 kts | 280° |
| 2026-05-07 11:54 | -11.37237 | 125.96276 | 33966 ft | 461 kts | 280° |
| 2026-05-07 11:54 | -11.35874 | 125.89924 | 33965 ft | 461 kts | 280° |
| 2026-05-07 11:55 | -11.34500 | 125.83532 | 33964 ft | 462 kts | 280° |
| 2026-05-07 11:55 | -11.33122 | 125.77124 | 33964 ft | 462 kts | 280° |
| 2026-05-07 11:56 | -11.31744 | 125.70724 | 33966 ft | 462 kts | 280° |
| 2026-05-07 11:56 | -11.30364 | 125.64324 | 33966 ft | 462 kts | 280° |
| 2026-05-07 11:57 | -11.28982 | 125.57921 | 33967 ft | 463 kts | 280° |
| 2026-05-07 11:57 | -11.27608 | 125.51565 | 33966 ft | 463 kts | 280° |
| 2026-05-07 11:58 | -11.26221 | 125.45155 | 33968 ft | 463 kts | 280° |
| 2026-05-07 11:58 | -11.24833 | 125.38746 | 33962 ft | 463 kts | 280° |
| 2026-05-07 11:59 | -11.23443 | 125.32335 | 33963 ft | 463 kts | 280° |
| 2026-05-07 11:59 | -11.22051 | 125.25919 | 33962 ft | 463 kts | 280° |
| 2026-05-07 12:00 | -11.20666 | 125.19545 | 33963 ft | 463 kts | 280° |
| 2026-05-07 12:00 | -11.19271 | 125.13132 | 33960 ft | 464 kts | 280° |
| 2026-05-07 12:01 | -11.17873 | 125.06712 | 33960 ft | 464 kts | 280° |
| 2026-05-07 12:01 | -11.16476 | 125.00300 | 33958 ft | 464 kts | 280° |
| 2026-05-07 12:02 | -11.15073 | 124.93874 | 33965 ft | 464 kts | 280° |
| 2026-05-07 12:02 | -11.13908 | 124.88537 | 33962 ft | 464 kts | 280° |
| 2026-05-07 12:03 | -11.12505 | 124.82120 | 33961 ft | 464 kts | 280° |
| 2026-05-07 12:03 | -11.11098 | 124.75692 | 33961 ft | 465 kts | 280° |
| 2026-05-07 12:04 | -11.09690 | 124.69269 | 33960 ft | 465 kts | 280° |
| 2026-05-07 12:04 | -11.08282 | 124.62848 | 33959 ft | 465 kts | 280° |
| 2026-05-07 12:05 | -11.06882 | 124.56465 | 33957 ft | 465 kts | 280° |
| 2026-05-07 12:05 | -11.05445 | 124.50046 | 33957 ft | 465 kts | 280° |
| 2026-05-07 12:06 | -11.03996 | 124.43611 | 33954 ft | 466 kts | 280° |
| 2026-05-07 12:06 | -11.02551 | 124.37177 | 33954 ft | 466 kts | 280° |
| 2026-05-07 12:07 | -11.01107 | 124.30741 | 33955 ft | 466 kts | 280° |
| 2026-05-07 12:07 | -10.99661 | 124.24310 | 33953 ft | 466 kts | 280° |
| 2026-05-07 12:08 | -10.98221 | 124.17913 | 33953 ft | 467 kts | 280° |
| 2026-05-07 12:08 | -10.96768 | 124.11469 | 33951 ft | 467 kts | 280° |
| 2026-05-07 12:09 | -10.95315 | 124.05027 | 33949 ft | 467 kts | 280° |
| 2026-05-07 12:09 | -10.93859 | 123.98581 | 33947 ft | 467 kts | 280° |
| 2026-05-07 12:10 | -10.92401 | 123.92130 | 33944 ft | 467 kts | 280° |
| 2026-05-07 12:10 | -10.90940 | 123.85676 | 33944 ft | 467 kts | 280° |
| 2026-05-07 12:11 | -10.89490 | 123.79275 | 33939 ft | 468 kts | 280° |
| 2026-05-07 12:11 | -10.88028 | 123.72827 | 33942 ft | 468 kts | 280° |
| 2026-05-07 12:12 | -10.86565 | 123.66383 | 33939 ft | 468 kts | 280° |
| 2026-05-07 12:12 | -10.85099 | 123.59931 | 33940 ft | 468 kts | 280° |
| 2026-05-07 12:13 | -10.83630 | 123.53476 | 33941 ft | 468 kts | 280° |
| 2026-05-07 12:13 | -10.82162 | 123.47030 | 33940 ft | 468 kts | 281° |
| 2026-05-07 12:14 | -10.80691 | 123.40575 | 33940 ft | 468 kts | 281° |
| 2026-05-07 12:14 | -10.79217 | 123.34114 | 33942 ft | 468 kts | 281° |
| 2026-05-07 12:15 | -10.77743 | 123.27662 | 33938 ft | 468 kts | 281° |
| 2026-05-07 12:15 | -10.76267 | 123.21204 | 33938 ft | 468 kts | 281° |
| 2026-05-07 12:16 | -10.74800 | 123.14793 | 33938 ft | 468 kts | 281° |
| 2026-05-07 12:16 | -10.73318 | 123.08325 | 33939 ft | 469 kts | 281° |
| 2026-05-07 12:17 | -10.71834 | 123.01856 | 33940 ft | 469 kts | 281° |
| 2026-05-07 12:17 | -10.70352 | 122.95399 | 33937 ft | 469 kts | 281° |
| 2026-05-07 12:18 | -10.68879 | 122.88987 | 33938 ft | 469 kts | 281° |
| 2026-05-07 12:18 | -10.67393 | 122.82527 | 33936 ft | 469 kts | 281° |
| 2026-05-07 12:19 | -10.65907 | 122.76073 | 33938 ft | 469 kts | 281° |
| 2026-05-07 12:19 | -10.64419 | 122.69616 | 33939 ft | 469 kts | 281° |
| 2026-05-07 12:20 | -10.62928 | 122.63149 | 33937 ft | 469 kts | 281° |
| 2026-05-07 12:20 | -10.61437 | 122.56692 | 33940 ft | 470 kts | 281° |
| 2026-05-07 12:21 | -10.59943 | 122.50231 | 33938 ft | 470 kts | 281° |
| 2026-05-07 12:21 | -10.58445 | 122.43752 | 33937 ft | 470 kts | 281° |
| 2026-05-07 12:22 | -10.56955 | 122.37322 | 33938 ft | 470 kts | 281° |
| 2026-05-07 12:22 | -10.55456 | 122.30852 | 33942 ft | 470 kts | 281° |
| 2026-05-07 12:23 | -10.53954 | 122.24380 | 33936 ft | 470 kts | 281° |
| 2026-05-07 12:23 | -10.52452 | 122.17912 | 33937 ft | 470 kts | 281° |
| 2026-05-07 12:24 | -10.50945 | 122.11430 | 33938 ft | 470 kts | 281° |
| 2026-05-07 12:24 | -10.49440 | 122.04963 | 33937 ft | 471 kts | 281° |
| 2026-05-07 12:25 | -10.47933 | 121.98492 | 33936 ft | 471 kts | 281° |
| 2026-05-07 12:25 | -10.46431 | 121.92052 | 33937 ft | 471 kts | 281° |
| 2026-05-07 12:26 | -10.44919 | 121.85574 | 33936 ft | 471 kts | 281° |
| 2026-05-07 12:26 | -10.43406 | 121.79096 | 33935 ft | 471 kts | 281° |
| 2026-05-07 12:27 | -10.41885 | 121.72592 | 33930 ft | 471 kts | 281° |
| 2026-05-07 12:27 | -10.40379 | 121.66160 | 33932 ft | 471 kts | 281° |
| 2026-05-07 12:28 | -10.38859 | 121.59672 | 33929 ft | 471 kts | 281° |
| 2026-05-07 12:28 | -10.37339 | 121.53189 | 33933 ft | 472 kts | 281° |
| 2026-05-07 12:29 | -10.35817 | 121.46704 | 33934 ft | 472 kts | 281° |
| 2026-05-07 12:29 | -10.34293 | 121.40217 | 33931 ft | 472 kts | 281° |
| 2026-05-07 12:30 | -10.32776 | 121.33768 | 33929 ft | 472 kts | 281° |
| 2026-05-07 12:30 | -10.31248 | 121.27278 | 33931 ft | 472 kts | 281° |
| 2026-05-07 12:31 | -10.29719 | 121.20789 | 33933 ft | 472 kts | 281° |
| 2026-05-07 12:31 | -10.28189 | 121.14298 | 33934 ft | 473 kts | 281° |
| 2026-05-07 12:32 | -10.26655 | 121.07803 | 33934 ft | 473 kts | 281° |
| 2026-05-07 12:32 | -10.25119 | 121.01300 | 33930 ft | 473 kts | 281° |
| 2026-05-07 12:33 | -10.22822 | 120.91589 | 33936 ft | 473 kts | 281° |
| 2026-05-07 12:33 | -10.21279 | 120.85076 | 33937 ft | 474 kts | 282° |
| 2026-05-07 12:34 | -10.19738 | 120.78576 | 33943 ft | 474 kts | 282° |
| 2026-05-07 12:34 | -10.18200 | 120.72092 | 33945 ft | 474 kts | 282° |
| 2026-05-07 12:35 | -10.16654 | 120.65585 | 33947 ft | 475 kts | 282° |
| 2026-05-07 12:35 | -10.15104 | 120.59063 | 33953 ft | 475 kts | 282° |
| 2026-05-07 12:36 | -10.13552 | 120.52543 | 33954 ft | 475 kts | 282° |
| 2026-05-07 12:36 | -10.11999 | 120.46017 | 33955 ft | 475 kts | 282° |
| 2026-05-07 12:37 | -10.10443 | 120.39490 | 33957 ft | 475 kts | 282° |
| 2026-05-07 12:37 | -10.08888 | 120.32972 | 33958 ft | 476 kts | 282° |
| 2026-05-07 12:38 | -10.07331 | 120.26450 | 33957 ft | 476 kts | 282° |
| 2026-05-07 12:38 | -10.05770 | 120.19923 | 33955 ft | 476 kts | 282° |
| 2026-05-07 12:39 | -10.04217 | 120.13429 | 33956 ft | 476 kts | 282° |
| 2026-05-07 12:39 | -10.02653 | 120.06894 | 33952 ft | 476 kts | 282° |
| 2026-05-07 12:40 | -10.01090 | 120.00367 | 33945 ft | 476 kts | 282° |
| 2026-05-07 12:40 | -9.99529 | 119.93836 | 33946 ft | 476 kts | 282° |
| 2026-05-07 12:41 | -9.97984 | 119.87357 | 33940 ft | 476 kts | 282° |
| 2026-05-07 12:41 | -9.96426 | 119.80827 | 33940 ft | 475 kts | 282° |
| 2026-05-07 12:42 | -9.94870 | 119.74312 | 33938 ft | 475 kts | 282° |
| 2026-05-07 12:42 | -9.93319 | 119.67829 | 33936 ft | 475 kts | 282° |
| 2026-05-07 12:43 | -9.91758 | 119.61305 | 33931 ft | 475 kts | 282° |
| 2026-05-07 12:43 | -9.90222 | 119.54894 | 33934 ft | 475 kts | 282° |
| 2026-05-07 12:44 | -9.88661 | 119.48384 | 33929 ft | 475 kts | 282° |
| 2026-05-07 12:44 | -9.87106 | 119.41909 | 33927 ft | 475 kts | 282° |
| 2026-05-07 12:45 | -9.85543 | 119.35399 | 33926 ft | 475 kts | 282° |
| 2026-05-07 12:45 | -9.83976 | 119.28882 | 33927 ft | 475 kts | 282° |
| 2026-05-07 12:46 | -9.82415 | 119.22392 | 33925 ft | 475 kts | 283° |
| 2026-05-07 12:46 | -9.80845 | 119.15875 | 33923 ft | 476 kts | 283° |
| 2026-05-07 12:47 | -9.79270 | 119.09339 | 33926 ft | 476 kts | 283° |
| 2026-05-07 12:47 | -9.77696 | 119.02819 | 33925 ft | 476 kts | 283° |
| 2026-05-07 12:48 | -9.76129 | 118.96329 | 33922 ft | 477 kts | 283° |
| 2026-05-07 12:48 | -9.74549 | 118.89795 | 33918 ft | 477 kts | 283° |
| 2026-05-07 12:49 | -9.72968 | 118.83259 | 33919 ft | 477 kts | 283° |
| 2026-05-07 12:49 | -9.71654 | 118.77830 | 33922 ft | 477 kts | 283° |
| 2026-05-07 12:50 | -9.70069 | 118.71292 | 33920 ft | 477 kts | 283° |
| 2026-05-07 12:50 | -9.68484 | 118.64757 | 33921 ft | 477 kts | 283° |
| 2026-05-07 12:51 | -9.66897 | 118.58218 | 33923 ft | 478 kts | 283° |
| 2026-05-07 12:51 | -9.65315 | 118.51708 | 33923 ft | 478 kts | 283° |
| 2026-05-07 12:52 | -9.63725 | 118.45170 | 33921 ft | 477 kts | 283° |
| 2026-05-07 12:52 | -9.62134 | 118.38635 | 33918 ft | 477 kts | 283° |
| 2026-05-07 12:53 | -9.60542 | 118.32104 | 33923 ft | 477 kts | 283° |
| 2026-05-07 12:53 | -9.58950 | 118.25574 | 33922 ft | 477 kts | 283° |
| 2026-05-07 12:54 | -9.57354 | 118.19036 | 33920 ft | 477 kts | 283° |
| 2026-05-07 12:54 | -9.55767 | 118.12541 | 33921 ft | 477 kts | 283° |
| 2026-05-07 12:55 | -9.54170 | 118.06009 | 33923 ft | 478 kts | 283° |
| 2026-05-07 12:55 | -9.52571 | 117.99473 | 33920 ft | 478 kts | 283° |
| 2026-05-07 12:56 | -9.50971 | 117.92938 | 33920 ft | 478 kts | 283° |
| 2026-05-07 12:56 | -9.49368 | 117.86399 | 33921 ft | 478 kts | 283° |
| 2026-05-07 12:57 | -9.47762 | 117.79857 | 33923 ft | 478 kts | 283° |
| 2026-05-07 12:57 | -9.46157 | 117.73316 | 33921 ft | 478 kts | 283° |
| 2026-05-07 12:58 | -9.44560 | 117.66813 | 33921 ft | 479 kts | 283° |
| 2026-05-07 12:58 | -9.42949 | 117.60261 | 33919 ft | 479 kts | 283° |
| 2026-05-07 12:59 | -9.41218 | 117.53750 | 33919 ft | 479 kts | 285° |
| 2026-05-07 12:59 | -9.39377 | 117.47260 | 33917 ft | 479 kts | 285° |
| 2026-05-07 13:00 | -9.37557 | 117.40765 | 33921 ft | 480 kts | 285° |
| 2026-05-07 13:00 | -9.35747 | 117.34257 | 33920 ft | 480 kts | 284° |
| 2026-05-07 13:01 | -9.33940 | 117.27755 | 33919 ft | 480 kts | 284° |
| 2026-05-07 13:01 | -9.32129 | 117.21247 | 33922 ft | 480 kts | 284° |
| 2026-05-07 13:02 | -9.30328 | 117.14782 | 33925 ft | 480 kts | 285° |
| 2026-05-07 13:02 | -9.29432 | 117.11569 | 33845 ft | 468 kts | 284° |
| 2026-05-07 13:02 | -9.28552 | 117.08416 | 33487 ft | 461 kts | 284° |
| 2026-05-07 13:03 | -9.27846 | 117.05266 | 32916 ft | 459 kts | 277° |
| 2026-05-07 13:03 | -9.27581 | 117.02044 | 32327 ft | 457 kts | 269° |
| 2026-05-07 13:03 | -9.27753 | 116.98845 | 31749 ft | 456 kts | 262° |
| 2026-05-07 13:03 | -9.28295 | 116.95688 | 31195 ft | 452 kts | 259° |
| 2026-05-07 13:04 | -9.28870 | 116.92571 | 30639 ft | 448 kts | 259° |
| 2026-05-07 13:04 | -9.29424 | 116.89522 | 30109 ft | 444 kts | 259° |
| 2026-05-07 13:04 | -9.29976 | 116.86461 | 29493 ft | 440 kts | 259° |
| 2026-05-07 13:04 | -9.30525 | 116.83419 | 28872 ft | 436 kts | 259° |
| 2026-05-07 13:05 | -9.31070 | 116.80403 | 28267 ft | 433 kts | 259° |
| 2026-05-07 13:05 | -9.31609 | 116.77417 | 27671 ft | 430 kts | 259° |
| 2026-05-07 13:05 | -9.32145 | 116.74452 | 27086 ft | 426 kts | 259° |
| 2026-05-07 13:05 | -9.32677 | 116.71506 | 26514 ft | 423 kts | 259° |
| 2026-05-07 13:06 | -9.33204 | 116.68584 | 25955 ft | 421 kts | 259° |
| 2026-05-07 13:06 | -9.33727 | 116.65678 | 25430 ft | 417 kts | 259° |
| 2026-05-07 13:06 | -9.34237 | 116.62847 | 25131 ft | 411 kts | 259° |
| 2026-05-07 13:06 | -9.34760 | 116.59940 | 24913 ft | 427 kts | 259° |
| 2026-05-07 13:07 | -9.35303 | 116.56922 | 24690 ft | 441 kts | 259° |
| 2026-05-07 13:07 | -9.35856 | 116.53849 | 24471 ft | 443 kts | 259° |
| 2026-05-07 13:07 | -9.36404 | 116.50799 | 24251 ft | 439 kts | 259° |
| 2026-05-07 13:07 | -9.36948 | 116.47769 | 24030 ft | 435 kts | 259° |
| 2026-05-07 13:08 | -9.37490 | 116.44755 | 23819 ft | 435 kts | 259° |
| 2026-05-07 13:08 | -9.38031 | 116.41738 | 23603 ft | 435 kts | 259° |
| 2026-05-07 13:08 | -9.38572 | 116.38724 | 23366 ft | 434 kts | 259° |
| 2026-05-07 13:08 | -9.39110 | 116.35725 | 23107 ft | 430 kts | 259° |
| 2026-05-07 13:09 | -9.39635 | 116.32795 | 22852 ft | 428 kts | 259° |
| 2026-05-07 13:09 | -9.40165 | 116.29838 | 22601 ft | 427 kts | 259° |
| 2026-05-07 13:09 | -9.40694 | 116.26877 | 22349 ft | 426 kts | 260° |
| 2026-05-07 13:09 | -9.41024 | 116.23912 | 22102 ft | 422 kts | 268° |
| 2026-05-07 13:10 | -9.40910 | 116.20945 | 21849 ft | 423 kts | 276° |
| 2026-05-07 13:10 | -9.40365 | 116.18020 | 21607 ft | 423 kts | 284° |
| 2026-05-07 13:10 | -9.39548 | 116.15163 | 21362 ft | 422 kts | 285° |
| 2026-05-07 13:10 | -9.38737 | 116.12305 | 21127 ft | 421 kts | 285° |
| 2026-05-07 13:11 | -9.37939 | 116.09465 | 20885 ft | 419 kts | 285° |
| 2026-05-07 13:11 | -9.37142 | 116.06622 | 20646 ft | 419 kts | 285° |
| 2026-05-07 13:11 | -9.36345 | 116.03782 | 20410 ft | 418 kts | 285° |
| 2026-05-07 13:11 | -9.35552 | 116.00959 | 20174 ft | 416 kts | 285° |
| 2026-05-07 13:12 | -9.34762 | 115.98145 | 19946 ft | 415 kts | 285° |
| 2026-05-07 13:12 | -9.33971 | 115.95331 | 19715 ft | 415 kts | 285° |
| 2026-05-07 13:12 | -9.33181 | 115.92521 | 19481 ft | 415 kts | 285° |
| 2026-05-07 13:12 | -9.32391 | 115.89712 | 19245 ft | 413 kts | 285° |
| 2026-05-07 13:13 | -9.31606 | 115.86926 | 19041 ft | 411 kts | 285° |
| 2026-05-07 13:13 | -9.30817 | 115.84123 | 18811 ft | 419 kts | 285° |
| 2026-05-07 13:13 | -9.30020 | 115.81296 | 18589 ft | 425 kts | 285° |
| 2026-05-07 13:13 | -9.29208 | 115.78416 | 18371 ft | 424 kts | 285° |
| 2026-05-07 13:14 | -9.28403 | 115.75562 | 18143 ft | 419 kts | 285° |
| 2026-05-07 13:14 | -9.27602 | 115.72725 | 17890 ft | 419 kts | 285° |
| 2026-05-07 13:14 | -9.26800 | 115.69881 | 17639 ft | 419 kts | 285° |
| 2026-05-07 13:14 | -9.26001 | 115.67050 | 17389 ft | 417 kts | 285° |
| 2026-05-07 13:15 | -9.25206 | 115.64235 | 17141 ft | 415 kts | 285° |
| 2026-05-07 13:15 | -9.24412 | 115.61422 | 16892 ft | 414 kts | 285° |
| 2026-05-07 13:15 | -9.23621 | 115.58625 | 16649 ft | 413 kts | 285° |
| 2026-05-07 13:15 | -9.22846 | 115.55885 | 16403 ft | 405 kts | 285° |
| 2026-05-07 13:16 | -9.22079 | 115.53178 | 16171 ft | 396 kts | 285° |
| 2026-05-07 13:16 | -9.21323 | 115.50506 | 15927 ft | 395 kts | 285° |
| 2026-05-07 13:16 | -9.20565 | 115.47822 | 15692 ft | 397 kts | 285° |
| 2026-05-07 13:16 | -9.19804 | 115.45133 | 15453 ft | 395 kts | 285° |
| 2026-05-07 13:17 | -9.19048 | 115.42463 | 15221 ft | 394 kts | 285° |
| 2026-05-07 13:17 | -9.18295 | 115.39806 | 14989 ft | 389 kts | 285° |
| 2026-05-07 13:17 | -9.17562 | 115.37220 | 14665 ft | 376 kts | 285° |
| 2026-05-07 13:17 | -9.16851 | 115.34712 | 14325 ft | 365 kts | 285° |
| 2026-05-07 13:18 | -9.16159 | 115.32272 | 13991 ft | 356 kts | 285° |
| 2026-05-07 13:18 | -9.15487 | 115.29900 | 13636 ft | 347 kts | 285° |
| 2026-05-07 13:18 | -9.14829 | 115.27577 | 13263 ft | 339 kts | 285° |
| 2026-05-07 13:18 | -9.14188 | 115.25308 | 12884 ft | 332 kts | 285° |
| 2026-05-07 13:19 | -9.13557 | 115.23080 | 12506 ft | 326 kts | 285° |
| 2026-05-07 13:19 | -9.12937 | 115.20893 | 12143 ft | 320 kts | 285° |
| 2026-05-07 13:19 | -9.12328 | 115.18743 | 11783 ft | 315 kts | 285° |
| 2026-05-07 13:19 | -9.11730 | 115.16632 | 11417 ft | 310 kts | 285° |
| 2026-05-07 13:20 | -9.11142 | 115.14559 | 11110 ft | 303 kts | 286° |
| 2026-05-07 13:20 | -9.10570 | 115.12544 | 10882 ft | 304 kts | 286° |
| 2026-05-07 13:20 | -9.09975 | 115.10451 | 10651 ft | 311 kts | 286° |
| 2026-05-07 13:20 | -9.09379 | 115.08353 | 10413 ft | 308 kts | 286° |
| 2026-05-07 13:21 | -9.08789 | 115.06280 | 10176 ft | 305 kts | 286° |
| 2026-05-07 13:21 | -9.08202 | 115.04216 | 9956 ft | 306 kts | 287° |
| 2026-05-07 13:21 | -9.07611 | 115.02136 | 9791 ft | 306 kts | 287° |
| 2026-05-07 13:21 | -9.07020 | 115.00063 | 9558 ft | 306 kts | 287° |
| 2026-05-07 13:22 | -9.06433 | 114.98002 | 9314 ft | 302 kts | 287° |
| 2026-05-07 13:22 | -9.05856 | 114.95980 | 9017 ft | 296 kts | 287° |
| 2026-05-07 13:22 | -9.05038 | 114.94104 | 8660 ft | 290 kts | 308° |
| 2026-05-07 13:22 | -9.03573 | 114.92801 | 8301 ft | 283 kts | 335° |
| 2026-05-07 13:23 | -9.01715 | 114.92250 | 7897 ft | 276 kts | 356° |
| 2026-05-07 13:23 | -8.99801 | 114.92114 | 7333 ft | 276 kts | 0° |
| 2026-05-07 13:23 | -8.97883 | 114.92052 | 6776 ft | 276 kts | 1° |
| 2026-05-07 13:23 | -8.95962 | 114.91995 | 6210 ft | 276 kts | 0° |
| 2026-05-07 13:24 | -8.94042 | 114.91925 | 5633 ft | 276 kts | 0° |
| 2026-05-07 13:24 | -8.92123 | 114.91843 | 5047 ft | 276 kts | 0° |
| 2026-05-07 13:24 | -8.90213 | 114.91754 | 4467 ft | 276 kts | 0° |
| 2026-05-07 13:24 | -8.88295 | 114.91662 | 3896 ft | 276 kts | 0° |
| 2026-05-07 13:25 | -8.86375 | 114.91571 | 3336 ft | 275 kts | 1° |
| 2026-05-07 13:25 | -8.84489 | 114.91486 | 2998 ft | 266 kts | 1° |
| 2026-05-07 13:25 | -8.82694 | 114.91400 | 2818 ft | 251 kts | 1° |
| 2026-05-07 13:25 | -8.80999 | 114.91323 | 2676 ft | 238 kts | 1° |
| 2026-05-07 13:26 | -8.79383 | 114.91249 | 2528 ft | 227 kts | 2° |
| 2026-05-07 13:26 | -8.77855 | 114.91199 | 2489 ft | 216 kts | 8° |
| 2026-05-07 13:26 | -8.76481 | 114.91645 | 2498 ft | 206 kts | 41° |
| 2026-05-07 13:26 | -8.75631 | 114.92753 | 2494 ft | 200 kts | 74° |
| 2026-05-07 13:27 | -8.75495 | 114.94117 | 2493 ft | 188 kts | 93° |
| 2026-05-07 13:27 | -8.75506 | 114.95363 | 2488 ft | 167 kts | 93° |
| 2026-05-07 13:27 | -8.75510 | 114.96513 | 2488 ft | 162 kts | 93° |
| 2026-05-07 13:27 | -8.75514 | 114.97647 | 2488 ft | 160 kts | 93° |
| 2026-05-07 13:28 | -8.75522 | 114.98765 | 2495 ft | 158 kts | 93° |
| 2026-05-07 13:28 | -8.75523 | 114.99878 | 2496 ft | 162 kts | 92° |
| 2026-05-07 13:28 | -8.75485 | 115.01022 | 2435 ft | 159 kts | 91° |
| 2026-05-07 13:28 | -8.75433 | 115.02092 | 2303 ft | 150 kts | 90° |
| 2026-05-07 13:29 | -8.75383 | 115.03127 | 1945 ft | 146 kts | 90° |
| 2026-05-07 13:29 | -8.75333 | 115.04158 | 1591 ft | 148 kts | 91° |
| 2026-05-07 13:29 | -8.75287 | 115.05194 | 1425 ft | 147 kts | 91° |
| 2026-05-07 13:29 | -8.75248 | 115.06226 | 1316 ft | 147 kts | 90° |
| 2026-05-07 13:30 | -8.75212 | 115.07268 | 1287 ft | 148 kts | 90° |
| 2026-05-07 13:30 | -8.75174 | 115.08305 | 1262 ft | 149 kts | 90° |
| 2026-05-07 13:30 | -8.75129 | 115.09342 | 1154 ft | 148 kts | 90° |
| 2026-05-07 13:30 | -8.75090 | 115.10405 | 1040 ft | 151 kts | 90° |
| 2026-05-07 13:31 | -8.75052 | 115.11471 | 861 ft | 152 kts | 90° |
| 2026-05-07 13:31 | -8.75038 | 115.11820 | 776 ft | 154 kts | 90° |
| 2026-05-07 13:32 | -8.75013 | 115.12341 | 658 ft | 154 kts | 91° |
| 2026-05-07 13:32 | -8.74979 | 115.13411 | 432 ft | 151 kts | 91° |
| 2026-05-07 13:32 | -8.74930 | 115.14445 | 262 ft | 144 kts | 89° |
| 2026-05-07 13:32 | -8.74892 | 115.15431 | 68 ft | 136 kts | 89° |
| 2026-05-07 13:33 | -8.74862 | 115.16286 | 28 ft | 90 kts | 87° |
| 2026-05-07 13:33 | -8.74835 | 115.16705 | 27 ft | 32 kts | 69° |
| 2026-05-07 13:33 | -8.74749 | 115.16852 | 30 ft | 2 kts | 39° |
| 2026-05-07 13:33 | -8.74693 | 115.16850 | 32 ft | 11 kts | 332° |
| 2026-05-07 13:34 | -8.74678 | 115.16769 | 32 ft | 14 kts | 267° |
| 2026-05-07 13:34 | -8.74686 | 115.16571 | 32 ft | 13 kts | 269° |
| 2026-05-07 13:34 | -8.74632 | 115.16543 | 33 ft | 9 kts | 359° |
| 2026-05-07 13:35 | -8.74572 | 115.16541 | 33 ft | 8 kts | 358° |
| 2026-05-07 13:35 | -8.74548 | 115.16540 | 33 ft | 2 kts | 358° |
| 2026-05-07 13:35 | -8.74547 | 115.16540 | 33 ft | 0 kts | 358° |